Aller au contenu


Afficher ou pas le shoutbox Shoutbox

Mizar : (22 October 2014 - 07:42) On sait pas avec qui mais c'est un bon ''odds'' Érol. :thumbup:
erol : (22 October 2014 - 06:55) Montréal en 5 :thanksjap:
Mizar : (21 October 2014 - 21:34) Ça sent la coupe. :yahoo: :sifle:
Mizar : (15 October 2014 - 07:56) Sauf dans le poil de mes chiens... :cry5:
Mizar : (15 October 2014 - 07:52) C'est l'fun les tocs... :bouah:
Redimensionner le Shoutbox

Photo
- - - - -

Observations du 5 au 11 mars 2012

observations

  • Please log in to reply
82 réponses à ce sujet

#1 Regg001

Regg001

    Membre senior

  • Membres
  • PipPipPipPipPip
  • 13 657 messages
  • Localité :Le Gardeur
  • Prénom :Réjean
  • Nom :Boudreau

Posté 05 March 2012 - 10:16

Bonne semaine à tous, il va faire froid et doux cette semaine - beaucoup de choses à observer en ce début de printemps.

Modifié par Regg001, 05 March 2012 - 12:51.

Regg - Chasseur de temps violent
Station Météo
Membre de QcVortex
Si tu n'aimes pas le temps qu'il fait... Soit patient, il va changer.


#2 serge44

serge44

    Régulier

  • Membres
  • Pip
  • 580 messages
  • Localité :Ste Therese de Gaspe
  • Prénom :Serge
  • Nom :H

Posté 05 March 2012 - 12:34

5 mars 2012 001.jpg 5 mars 2012 002.jpg Quelque photos d,hiver prise à 11h45 ce matin, avant la possible douceure de cette semaine.

#3 Mizar

Mizar

    Membre extra

  • Membres
  • PipPipPipPip
  • 7 137 messages
  • Localité :Eastman, Québec
  • Prénom :Erick
  • Nom :C.

Posté 05 March 2012 - 13:27

J'attend ma neige... -6°C et un brin venteux du NNE.

Dehors le froid te traverse le corps. C'est la même sensation avec les vents du N-NE comme quand une bonne tempête d'hiver s,en vient sur toi pour les prochaines heures.

Je continu a croire que ce seront les derniers cm pour un bon bout de temps. :ermm:

#4 cumulus

cumulus

    Contributeur

  • Membres
  • PipPip
  • 1 096 messages
  • Localité :Bathurst (N.-B.)
  • Prénom :Simon
  • Nom :P.

Posté 05 March 2012 - 14:48

J'attend ma neige... -6°C et un brin venteux du NNE.

Dehors le froid te traverse le corps. C'est la même sensation avec les vents du N-NE comme quand une bonne tempête d'hiver s,en vient sur toi pour les prochaines heures.

Je continu a croire que ce seront les derniers cm pour un bon bout de temps. :ermm:

Le froid traverse le corps ? Wow! Mizar...mois qui croyait que tu aimais l'hiver.

Ici, il fait-4°C (15 heures). Il y a eu un peu de neige la nuit dernière (environ 5 cm). Le vent de l'ENE est maintenant de 11 km/h. Ce midi dès que le soleil faisait une percé à travers les nuages, la neige fondait sur l’asphalte.
Dernier cm? J'espère que non!!! J'ose espérer qu'il y en aura la semaine prochaine.

Modifié par cumulus, 05 March 2012 - 14:48.


#5 Mizar

Mizar

    Membre extra

  • Membres
  • PipPipPipPip
  • 7 137 messages
  • Localité :Eastman, Québec
  • Prénom :Erick
  • Nom :C.

Posté 05 March 2012 - 15:10

Le froid traverse le corps ? Wow! Mizar...mois qui croyait que tu aimais l'hiver.

Ici, il fait-4°C (15 heures). Il y a eu un peu de neige la nuit dernière (environ 5 cm). Le vent de l'ENE est maintenant de 11 km/h. Ce midi dès que le soleil faisait une percé à travers les nuages, la neige fondait sur l’asphalte.
Dernier cm? J'espère que non!!! J'ose espérer qu'il y en aura la semaine prochaine.


Mizar adore l'hiver, c'est juste qu'il y a parfois des -6 qui ressemble à des -20. Y :sorry:

#6 Mizar

Mizar

    Membre extra

  • Membres
  • PipPipPipPip
  • 7 137 messages
  • Localité :Eastman, Québec
  • Prénom :Erick
  • Nom :C.

Posté 05 March 2012 - 18:42

Ce soir juste un peu après souper, une petite neige bien froide et bien poudreuse qui se dépose petit à petit.

Mercure a -6°C et très léger vent du N-NE.

Diras bien ce que l'on voudras, une belle petite neige qui tombe tout doucement et que l'on perçoit à travers les fenêtres à la lueur des lumières extérieur et bien ça garde toujours sa petite touche magique.

Bonne soirés @ tous.
  • serge167 aime ceci

#7 92vwgti

92vwgti

    Nouveau

  • Membres
  • 49 messages
  • Localité :Haute Gaspesie

Posté 05 March 2012 - 23:15

-11 ici avec ciel degager..cetait assez speciale de hier soir a cette apres midi on a recu un 25cm de neige tres legere

#8 serge167

serge167

    Régulier

  • Membres
  • Pip
  • 712 messages
  • Localité :lameque N-B
  • Prénom :serge

Posté 05 March 2012 - 23:18

Ce soir juste un peu après souper, une petite neige bien froide et bien poudreuse qui se dépose petit à petit.

Mercure a -6°C et très léger vent du N-NE.

Diras bien ce que l'on voudras, une belle petite neige qui tombe tout doucement et que l'on perçoit à travers les fenêtres à la lueur des lumières extérieur et bien ça garde toujours sa petite touche magique.

Bonne soirés @ tous.


tu a bien raison je t'approuve a 200%

#9 olivier_200

olivier_200

    Régulier

  • Membres
  • Pip
  • 929 messages
  • Localité :saint-hyacinthe
  • Prénom :olivier
  • Nom :lemieux

Posté 06 March 2012 - 11:27

Il ne vente pas trop ce -8C qu'on a se prend bien avec ce magnifique soleil.

#10 escapade

escapade

    Nouveau

  • Membres
  • 4 messages

Posté 06 March 2012 - 11:53

ici à La Macaza, il fait -12 degrés, ensoleillé.

je ne sais si je deviens frileux, je trouve qu'il fait frette.

on est sûrement bon pour avoir une autre tempête, celle des Corneilles avec beaucoup de vents
et neige.

escapade

#11 serge44

serge44

    Régulier

  • Membres
  • Pip
  • 580 messages
  • Localité :Ste Therese de Gaspe
  • Prénom :Serge
  • Nom :H

Posté 06 March 2012 - 16:32

Bonjours, je vient d,arriver du ski de fond il est tombé de gros flocon léger comme de la plume une bonne parti de l,après midi 2cm il fait -6.2c.

#12 cumulus

cumulus

    Contributeur

  • Membres
  • PipPip
  • 1 096 messages
  • Localité :Bathurst (N.-B.)
  • Prénom :Simon
  • Nom :P.

Posté 06 March 2012 - 16:58

Bizarre! Il a fait une très belle journée ensoleillé aujourd'hui: un ciel bleu presque d'un horizon à l'autre (quelques nuages à l'horizon).

Pourtant les données à l'aéroport indique le contraire: faible neige. Il doit y avoir une erreur. Par exemple, ce midi le soleil réchauffait toute une pièce de la maison.

Miniature(s) jointe(s)

  • Bat06032012.jpg


#13 serge44

serge44

    Régulier

  • Membres
  • Pip
  • 580 messages
  • Localité :Ste Therese de Gaspe
  • Prénom :Serge
  • Nom :H

Posté 06 March 2012 - 17:50

Il semble y avoir quelque fois des erreures sur les donné d,obsevations que diffuse E.C sur sont site web , ex la station de Cap d,espoir qui est juste à coté d,ici rapporte 1mm de précipitation pour les deux dernier jours , alors que j,ai observé 10cm de neige.pour la même période , et aussi il parait qu,à Québec aéroport c,est pas toujours fiable pour les minimum de nuit.

#14 Regg001

Regg001

    Membre senior

  • Membres
  • PipPipPipPipPip
  • 13 657 messages
  • Localité :Le Gardeur
  • Prénom :Réjean
  • Nom :Boudreau

Posté 06 March 2012 - 19:13

Ce n'est pas de l'orage, mais il y a quand même une ligne convective à l'avant du front chaud qui s'avance sur l'Est de l'Ontario.

20120306_ligne_ont.png

Même qu'en regardant l'imagerie satellite en animation, on pourrait croire à une très large boundary qui s'en va vers l'est à assez bonne vitesse. Juste avant le couché du soleil, c'était plein de congestus bien gonflés le long de cette ligne.

20120306_ligne_ont2.png

Potentiellement , une petite dose de flocons pour tard ce soir ou cette nuit. Avant l'air doux de demain.

Modifié par Regg001, 06 March 2012 - 19:22.

Regg - Chasseur de temps violent
Station Météo
Membre de QcVortex
Si tu n'aimes pas le temps qu'il fait... Soit patient, il va changer.


#15 Mathieu Lussier

Mathieu Lussier

    Contributeur

  • Membres
  • PipPip
  • 1 765 messages
  • Localité :Saint-Hubert,Qc,Canada
  • Prénom :Mathieu
  • Nom :Lussier

Posté 06 March 2012 - 19:44

je viens de voir sa .... tres interessant :P
Chasseur de tempête (stormchaser)
Observateur Volontaire EC
Ma station météorologiques: http://www.wundergro...p?ID=IQUEBECS26
Mon blog:http://chassesorages...u.blogspot.com/

#16 dave20

dave20

    Membre +

  • Membres
  • PipPipPip
  • 4 937 messages
  • Localité :Ste-Perpétue, L'Islet
  • Prénom :Dave

Posté 06 March 2012 - 20:09

N'importe qui ne regardant pas la météo pourrait pas se douter de la douceur des 2 prochains jours ! -14C en ce moment et ça baisse.

#17 MicHuot

MicHuot

    Contributeur

  • Membres
  • PipPip
  • 1 472 messages
  • Localité :St-Antonin (Riv-du-Loup)
  • Prénom :Michel
  • Nom :Huot

Posté 06 March 2012 - 20:19

Bizarre! Il a fait une très belle journée ensoleillé aujourd'hui: un ciel bleu presque d'un horizon à l'autre (quelques nuages à l'horizon).

Pourtant les données à l'aéroport indique le contraire: faible neige. Il doit y avoir une erreur. Par exemple, ce midi le soleil réchauffait toute une pièce de la maison.


Un ciel épars a fragmenté avec quelques flocons ça sonnerait différemment de faible neige. Fies-toi au Metar à la place.

CZBF 062100Z 00000KT 15SM -SN FEW030 SCT120 BKN130 M06/M12 A3041 RMK SC1AC2AS1 SLP305
CZBF 062000Z 00000KT 15SM -SN FEW030 BKN120 M06/M12 A3040 RMK SC1AS2 AC ASOCTD SLP301
CZBF 061900Z 12004KT 15SM FEW030 FEW120 M06/M12 A3040 RMK SC1AS1 SLP299
CZBF 061846Z 09005KT 15SM FEW030 FEW120 RMK SC1AS1
CZBF 061800Z 05006KT 15SM -SN FEW030 BKN120 M07/M12 A3040 RMK SC1AS2 SLP300
CZBF 061700Z 06006KT 15SM -SN FEW030 BKN120 M07/M12 A3042 RMK SC1AS3 SLP305
CZBF 061600Z 06003KT 15SM FEW030 BKN120 M07/M12 A3043 RMK SC2AS2 SLP309
CZBF 061500Z CCA 04006KT 15SM FEW030 SCT120 M07/M12 A3043 RMK SC2AS1 SLP308
CZBF 061444Z 03006KT 15SM FEW030 SCT120 RMK SC2AS1
CZBF 061400Z 00000KT 12SM -SN FEW030 BKN120 M09/M12 A3042 RMK SC1AS3 SLP308
CZBF 061300Z 00000KT 8SM -SN FEW120 M10/M12 A3042 RMK AC2 SLP306
CZBF 061200Z 00000KT 10SM -SN OVC120 M15/M16 A3040 RMK AC7 FROIN SLP300


Il semble y avoir quelque fois des erreures sur les donné d,obsevations que diffuse E.C sur sont site web , ex la station de Cap d,espoir qui est juste à coté d,ici rapporte 1mm de précipitation pour les deux dernier jours , alors que j,ai observé 10cm de neige.pour la même période , et aussi il parait qu,à Québec aéroport c,est pas toujours fiable pour les minimum de nuit.


Les stations auto ont de la difficulté avec la neige légère surtout lorsqu'il vente. Pour les min de Québec faudrait que tu précises.

MH

Modifié par MicHuot, 06 March 2012 - 20:20.


#18 serge44

serge44

    Régulier

  • Membres
  • Pip
  • 580 messages
  • Localité :Ste Therese de Gaspe
  • Prénom :Serge
  • Nom :H

Posté 06 March 2012 - 22:42

Pour les min de Québec je l,ai vu sur une discutions sur un forum je n,ai pas de preuve réel la dessu ça ne vient pas de moi donc peut être pas véridique et pour la station auto de Cap d,espoir ce n,est pas seulement un problême avec la neige légère , dimanche cette station n,a enregistré aucune accumulations pour toute la journée alors qu il à neigé toute la soirée mais c,est parfois comme ça avec la pluie aussi des écarts que même observable sans pluvio je ne conseil pas à personne de se fier sur cette stations pour arrosé sont jardin l,été prochain .

#19 Regg001

Regg001

    Membre senior

  • Membres
  • PipPipPipPipPip
  • 13 657 messages
  • Localité :Le Gardeur
  • Prénom :Réjean
  • Nom :Boudreau

Posté 07 March 2012 - 08:28

Bon matin tout le monde, les prévisions sont pour du temps doux à partir d'aujourd'hui avec du soleil.

Ce matin il y a une bonne différence dans les températures entre le centre ville de MTL + rive sud et ce qu'il y a sur la rive nord ou même Laval.

MTL et Rive sud, ça tourne dans les 0 à +5c , alors que pour Laval et Rive Nord ça va dans les -4 à -7. Ça semble principalement relié au vent, les stations donnant du temps frais indiquent un vent surtout du NE, alors que les stations montrant du temps plus doux indiquent un vent entre le SSO et SSE.

En passant c'est la prévision du GEM qui est la plus chaude pour aujourd'hui chez moi avec +11c. L'Euro indique +8c en maximum, +3.5c pour le NAM, et +2.5c pour le GFS .

Modifié par Regg001, 07 March 2012 - 08:29.

Regg - Chasseur de temps violent
Station Météo
Membre de QcVortex
Si tu n'aimes pas le temps qu'il fait... Soit patient, il va changer.


#20 Bouboule de neige

Bouboule de neige

    Nouveau

  • Bannis
  • 339 messages
  • Localité :Banlieue nord de Québec, QC

Posté 07 March 2012 - 09:24

Pour les min de Québec faudrait que tu précises.

Je suis en discussion avec EC depuis de longs mois à ce sujet.
Il y a un véritable problème avec les données de Québec, et ce depuis fin novembre. Les minimales sont totalement fausses la moitié du temps. Depuis plus de 3 mois maintenant, les moyennes mensuelles, par effet boule de neige, sont complètement sous-estimées. C'est une certitude.
Encore hier... soi-disant -23,0 °C à Québec alors qu'il n'a pas fait moins de -17/-18 °C.
Et EC ne sait pas quoi me répondre... Bref, c'est la m....





Also tagged with one or more of these keywords: observations

0 utilisateur(s) li(sen)t ce sujet

0 membre(s), 0 invité(s), 0 utilisateur(s) anonyme(s)